sensor_id;sensor_type;location;lat;lon;timestamp;temperature;humidity
19813;DHT22;10066;48.108;11.448;2023-12-04T00:01:13;-7.70;99.90
19813;DHT22;10066;48.108;11.448;2023-12-04T00:03:40;-7.60;99.90
19813;DHT22;10066;48.108;11.448;2023-12-04T00:06:11;-7.60;99.90
19813;DHT22;10066;48.108;11.448;2023-12-04T00:08:41;-7.60;99.90
19813;DHT22;10066;48.108;11.448;2023-12-04T00:11:08;-7.60;99.90
19813;DHT22;10066;48.108;11.448;2023-12-04T00:13:35;-7.60;99.90
19813;DHT22;10066;48.108;11.448;2023-12-04T00:16:02;-7.60;99.90
19813;DHT22;10066;48.108;11.448;2023-12-04T00:18:29;-7.60;99.90
19813;DHT22;10066;48.108;11.448;2023-12-04T00:20:56;-7.60;99.90
19813;DHT22;10066;48.108;11.448;2023-12-04T00:23:25;-7.60;99.90
19813;DHT22;10066;48.108;11.448;2023-12-04T00:25:54;-7.60;99.90
19813;DHT22;10066;48.108;11.448;2023-12-04T00:28:21;-7.60;99.90
19813;DHT22;10066;48.108;11.448;2023-12-04T00:30:48;-7.70;99.90
19813;DHT22;10066;48.108;11.448;2023-12-04T00:33:15;-7.70;99.90
19813;DHT22;10066;48.108;11.448;2023-12-04T00:35:42;-7.70;99.90
19813;DHT22;10066;48.108;11.448;2023-12-04T00:38:09;-7.60;99.90
19813;DHT22;10066;48.108;11.448;2023-12-04T00:40:38;-7.60;99.90
19813;DHT22;10066;48.108;11.448;2023-12-04T00:43:05;-7.60;99.90
19813;DHT22;10066;48.108;11.448;2023-12-04T00:45:32;-7.70;99.90
19813;DHT22;10066;48.108;11.448;2023-12-04T00:47:59;-7.70;99.90
19813;DHT22;10066;48.108;11.448;2023-12-04T00:50:26;-7.60;99.90
19813;DHT22;10066;48.108;11.448;2023-12-04T00:52:53;-7.60;99.90
19813;DHT22;10066;48.108;11.448;2023-12-04T00:55:20;-7.60;99.90
19813;DHT22;10066;48.108;11.448;2023-12-04T00:57:48;-7.60;99.90
19813;DHT22;10066;48.108;11.448;2023-12-04T01:00:16;-7.60;99.90
19813;DHT22;10066;48.108;11.448;2023-12-04T01:02:43;-7.70;99.90
19813;DHT22;10066;48.108;11.448;2023-12-04T01:05:10;-7.70;99.90
19813;DHT22;10066;48.108;11.448;2023-12-04T01:07:37;-7.70;99.90
19813;DHT22;10066;48.108;11.448;2023-12-04T01:10:05;-7.70;99.90
19813;DHT22;10066;48.108;11.448;2023-12-04T01:12:32;-7.70;99.90
19813;DHT22;10066;48.108;11.448;2023-12-04T01:15:01;-7.70;99.90
19813;DHT22;10066;48.108;11.448;2023-12-04T01:17:28;-7.70;99.90
19813;DHT22;10066;48.108;11.448;2023-12-04T01:19:58;-7.70;99.90
19813;DHT22;10066;48.108;11.448;2023-12-04T01:22:25;-7.70;99.90
19813;DHT22;10066;48.108;11.448;2023-12-04T01:24:52;-7.70;99.90
19813;DHT22;10066;48.108;11.448;2023-12-04T01:27:19;-7.60;99.90
19813;DHT22;10066;48.108;11.448;2023-12-04T01:29:46;-7.60;99.90
19813;DHT22;10066;48.108;11.448;2023-12-04T01:32:15;-7.60;99.90
19813;DHT22;10066;48.108;11.448;2023-12-04T01:34:42;-7.60;99.90
19813;DHT22;10066;48.108;11.448;2023-12-04T01:37:09;-7.60;99.90
19813;DHT22;10066;48.108;11.448;2023-12-04T01:39:37;-7.60;99.90
19813;DHT22;10066;48.108;11.448;2023-12-04T01:42:04;-7.60;99.90
19813;DHT22;10066;48.108;11.448;2023-12-04T01:44:31;-7.60;99.90
19813;DHT22;10066;48.108;11.448;2023-12-04T01:46:58;-7.60;99.90
19813;DHT22;10066;48.108;11.448;2023-12-04T01:49:27;-7.60;99.90
19813;DHT22;10066;48.108;11.448;2023-12-04T01:51:54;-7.60;99.90
19813;DHT22;10066;48.108;11.448;2023-12-04T01:54:22;-7.60;99.90
19813;DHT22;10066;48.108;11.448;2023-12-04T01:56:49;-7.60;99.90
19813;DHT22;10066;48.108;11.448;2023-12-04T01:59:17;-7.60;99.90
19813;DHT22;10066;48.108;11.448;2023-12-04T02:01:44;-7.70;99.90
19813;DHT22;10066;48.108;11.448;2023-12-04T02:04:11;-7.70;99.90
19813;DHT22;10066;48.108;11.448;2023-12-04T02:06:41;-7.70;99.90
19813;DHT22;10066;48.108;11.448;2023-12-04T02:09:08;-7.70;99.90
19813;DHT22;10066;48.108;11.448;2023-12-04T02:11:39;-7.70;99.90
19813;DHT22;10066;48.108;11.448;2023-12-04T02:14:06;-7.80;99.90
19813;DHT22;10066;48.108;11.448;2023-12-04T02:16:38;-7.80;99.90
19813;DHT22;10066;48.108;11.448;2023-12-04T02:19:07;-7.80;99.90
19813;DHT22;10066;48.108;11.448;2023-12-04T02:21:35;-7.90;99.90
19813;DHT22;10066;48.108;11.448;2023-12-04T02:24:03;-7.90;99.90
19813;DHT22;10066;48.108;11.448;2023-12-04T02:26:34;-7.90;99.90
19813;DHT22;10066;48.108;11.448;2023-12-04T02:29:07;-7.90;99.90
19813;DHT22;10066;48.108;11.448;2023-12-04T02:31:34;-7.90;99.90
19813;DHT22;10066;48.108;11.448;2023-12-04T02:34:04;-8.00;99.90
19813;DHT22;10066;48.108;11.448;2023-12-04T02:36:34;-8.00;99.90
19813;DHT22;10066;48.108;11.448;2023-12-04T02:39:04;-7.90;99.90
19813;DHT22;10066;48.108;11.448;2023-12-04T02:41:32;-7.90;99.90
19813;DHT22;10066;48.108;11.448;2023-12-04T02:43:59;-8.00;99.90
19813;DHT22;10066;48.108;11.448;2023-12-04T02:46:26;-8.00;99.90
19813;DHT22;10066;48.108;11.448;2023-12-04T02:48:53;-8.00;99.90
19813;DHT22;10066;48.108;11.448;2023-12-04T02:51:19;-8.00;99.90
19813;DHT22;10066;48.108;11.448;2023-12-04T02:53:47;-8.00;99.90
19813;DHT22;10066;48.108;11.448;2023-12-04T02:56:15;-8.10;99.90
19813;DHT22;10066;48.108;11.448;2023-12-04T02:58:42;-8.10;99.90
19813;DHT22;10066;48.108;11.448;2023-12-04T03:01:11;-8.20;99.90
19813;DHT22;10066;48.108;11.448;2023-12-04T03:03:39;-8.20;99.90
19813;DHT22;10066;48.108;11.448;2023-12-04T03:06:07;-8.20;99.90
19813;DHT22;10066;48.108;11.448;2023-12-04T03:08:34;-8.30;99.90
19813;DHT22;10066;48.108;11.448;2023-12-04T03:11:01;-8.30;99.90
19813;DHT22;10066;48.108;11.448;2023-12-04T03:13:31;-8.40;99.90
19813;DHT22;10066;48.108;11.448;2023-12-04T03:15:58;-8.40;99.90
19813;DHT22;10066;48.108;11.448;2023-12-04T03:18:25;-8.50;99.90
19813;DHT22;10066;48.108;11.448;2023-12-04T03:20:54;-8.50;99.90
19813;DHT22;10066;48.108;11.448;2023-12-04T03:23:21;-8.60;99.90
19813;DHT22;10066;48.108;11.448;2023-12-04T03:25:48;-8.60;99.90
19813;DHT22;10066;48.108;11.448;2023-12-04T03:28:15;-8.70;99.90
19813;DHT22;10066;48.108;11.448;2023-12-04T03:30:43;-8.70;99.90
19813;DHT22;10066;48.108;11.448;2023-12-04T03:33:11;-8.80;99.90
19813;DHT22;10066;48.108;11.448;2023-12-04T03:35:38;-8.90;99.90
19813;DHT22;10066;48.108;11.448;2023-12-04T03:38:06;-9.00;99.90
19813;DHT22;10066;48.108;11.448;2023-12-04T03:40:33;-9.10;99.90
19813;DHT22;10066;48.108;11.448;2023-12-04T03:43:00;-9.10;99.90
19813;DHT22;10066;48.108;11.448;2023-12-04T03:45:27;-9.20;99.90
19813;DHT22;10066;48.108;11.448;2023-12-04T03:47:56;-9.20;99.90
19813;DHT22;10066;48.108;11.448;2023-12-04T03:50:23;-9.30;99.90
19813;DHT22;10066;48.108;11.448;2023-12-04T03:52:50;-9.30;99.90
19813;DHT22;10066;48.108;11.448;2023-12-04T03:55:17;-9.30;99.90
19813;DHT22;10066;48.108;11.448;2023-12-04T03:57:45;-9.30;99.90
19813;DHT22;10066;48.108;11.448;2023-12-04T04:00:13;-9.40;99.90
19813;DHT22;10066;48.108;11.448;2023-12-04T04:02:42;-9.40;99.90
19813;DHT22;10066;48.108;11.448;2023-12-04T04:05:11;-9.40;99.90
19813;DHT22;10066;48.108;11.448;2023-12-04T04:07:38;-9.40;99.90
19813;DHT22;10066;48.108;11.448;2023-12-04T04:10:06;-9.50;99.90
19813;DHT22;10066;48.108;11.448;2023-12-04T04:12:34;-9.50;99.90
19813;DHT22;10066;48.108;11.448;2023-12-04T04:15:01;-9.50;99.90
19813;DHT22;10066;48.108;11.448;2023-12-04T04:17:28;-9.60;99.90
19813;DHT22;10066;48.108;11.448;2023-12-04T04:19:55;-9.60;99.90
19813;DHT22;10066;48.108;11.448;2023-12-04T04:22:23;-9.60;99.90
19813;DHT22;10066;48.108;11.448;2023-12-04T04:24:50;-9.60;99.90
19813;DHT22;10066;48.108;11.448;2023-12-04T04:27:17;-9.70;99.90
19813;DHT22;10066;48.108;11.448;2023-12-04T04:29:44;-9.70;99.90
19813;DHT22;10066;48.108;11.448;2023-12-04T04:32:13;-9.70;99.90
19813;DHT22;10066;48.108;11.448;2023-12-04T04:34:40;-9.70;99.90
19813;DHT22;10066;48.108;11.448;2023-12-04T04:37:07;-9.70;99.90
19813;DHT22;10066;48.108;11.448;2023-12-04T04:39:35;-9.70;99.90
19813;DHT22;10066;48.108;11.448;2023-12-04T04:42:02;-9.70;99.90
19813;DHT22;10066;48.108;11.448;2023-12-04T04:44:29;-9.70;99.90
19813;DHT22;10066;48.108;11.448;2023-12-04T04:46:58;-9.60;99.90
19813;DHT22;10066;48.108;11.448;2023-12-04T04:49:25;-9.50;99.90
19813;DHT22;10066;48.108;11.448;2023-12-04T04:51:52;-9.60;99.90
19813;DHT22;10066;48.108;11.448;2023-12-04T04:54:19;-9.60;99.90
19813;DHT22;10066;48.108;11.448;2023-12-04T04:56:47;-9.60;99.90
19813;DHT22;10066;48.108;11.448;2023-12-04T04:59:15;-9.60;99.90
19813;DHT22;10066;48.108;11.448;2023-12-04T05:01:41;-9.60;99.90
19813;DHT22;10066;48.108;11.448;2023-12-04T05:04:09;-9.60;99.90
19813;DHT22;10066;48.108;11.448;2023-12-04T05:06:35;-9.60;99.90
19813;DHT22;10066;48.108;11.448;2023-12-04T05:09:03;-9.50;99.90
19813;DHT22;10066;48.108;11.448;2023-12-04T05:11:30;-9.50;99.90
19813;DHT22;10066;48.108;11.448;2023-12-04T05:13:58;-9.40;99.90
19813;DHT22;10066;48.108;11.448;2023-12-04T05:16:25;-9.40;99.90
19813;DHT22;10066;48.108;11.448;2023-12-04T05:18:52;-9.30;99.90
19813;DHT22;10066;48.108;11.448;2023-12-04T05:21:19;-9.20;99.90
19813;DHT22;10066;48.108;11.448;2023-12-04T05:23:46;-9.20;99.90
19813;DHT22;10066;48.108;11.448;2023-12-04T05:26:13;-9.10;99.90
19813;DHT22;10066;48.108;11.448;2023-12-04T05:28:40;-9.10;99.90
19813;DHT22;10066;48.108;11.448;2023-12-04T05:31:09;-9.00;99.90
19813;DHT22;10066;48.108;11.448;2023-12-04T05:33:36;-9.00;99.90
19813;DHT22;10066;48.108;11.448;2023-12-04T05:36:04;-8.90;99.90
19813;DHT22;10066;48.108;11.448;2023-12-04T05:38:32;-8.90;99.90
19813;DHT22;10066;48.108;11.448;2023-12-04T05:40:59;-8.90;99.90
19813;DHT22;10066;48.108;11.448;2023-12-04T05:43:26;-8.90;99.90
19813;DHT22;10066;48.108;11.448;2023-12-04T05:45:53;-8.90;99.90
19813;DHT22;10066;48.108;11.448;2023-12-04T05:48:21;-8.90;99.90
19813;DHT22;10066;48.108;11.448;2023-12-04T05:50:48;-8.90;99.90
19813;DHT22;10066;48.108;11.448;2023-12-04T05:53:16;-8.90;99.90
19813;DHT22;10066;48.108;11.448;2023-12-04T05:55:43;-8.90;99.90
19813;DHT22;10066;48.108;11.448;2023-12-04T05:58:11;-8.90;99.90
19813;DHT22;10066;48.108;11.448;2023-12-04T06:00:38;-8.80;99.90
19813;DHT22;10066;48.108;11.448;2023-12-04T06:03:06;-8.80;99.90
19813;DHT22;10066;48.108;11.448;2023-12-04T06:05:34;-8.80;99.90
19813;DHT22;10066;48.108;11.448;2023-12-04T06:08:01;-8.80;99.90
19813;DHT22;10066;48.108;11.448;2023-12-04T06:10:28;-8.80;99.90
19813;DHT22;10066;48.108;11.448;2023-12-04T06:12:55;-8.70;99.90
19813;DHT22;10066;48.108;11.448;2023-12-04T06:15:22;-8.70;99.90
19813;DHT22;10066;48.108;11.448;2023-12-04T06:17:49;-8.70;99.90
19813;DHT22;10066;48.108;11.448;2023-12-04T06:20:16;-8.60;99.90
19813;DHT22;10066;48.108;11.448;2023-12-04T06:22:45;-8.60;99.90
19813;DHT22;10066;48.108;11.448;2023-12-04T06:25:14;-8.60;99.90
19813;DHT22;10066;48.108;11.448;2023-12-04T06:27:42;-8.50;99.90
19813;DHT22;10066;48.108;11.448;2023-12-04T06:30:10;-8.50;99.90
19813;DHT22;10066;48.108;11.448;2023-12-04T06:32:37;-8.40;99.90
19813;DHT22;10066;48.108;11.448;2023-12-04T06:35:06;-8.40;99.90
19813;DHT22;10066;48.108;11.448;2023-12-04T06:37:34;-8.30;99.90
19813;DHT22;10066;48.108;11.448;2023-12-04T06:40:04;-8.30;99.90
19813;DHT22;10066;48.108;11.448;2023-12-04T06:42:34;-8.30;99.90
19813;DHT22;10066;48.108;11.448;2023-12-04T06:45:02;-8.30;99.90
19813;DHT22;10066;48.108;11.448;2023-12-04T06:47:32;-8.20;99.90
19813;DHT22;10066;48.108;11.448;2023-12-04T06:50:00;-8.20;99.90
19813;DHT22;10066;48.108;11.448;2023-12-04T06:52:27;-8.20;99.90
19813;DHT22;10066;48.108;11.448;2023-12-04T06:54:54;-8.20;99.90
19813;DHT22;10066;48.108;11.448;2023-12-04T06:57:23;-8.10;99.90
19813;DHT22;10066;48.108;11.448;2023-12-04T06:59:50;-8.10;99.90
19813;DHT22;10066;48.108;11.448;2023-12-04T07:02:17;-8.10;99.90
19813;DHT22;10066;48.108;11.448;2023-12-04T07:04:44;-8.10;99.90
19813;DHT22;10066;48.108;11.448;2023-12-04T07:07:11;-8.10;99.90
19813;DHT22;10066;48.108;11.448;2023-12-04T07:09:38;-8.00;99.90
19813;DHT22;10066;48.108;11.448;2023-12-04T07:12:05;-8.00;99.90
19813;DHT22;10066;48.108;11.448;2023-12-04T07:14:34;-8.00;99.90
19813;DHT22;10066;48.108;11.448;2023-12-04T07:17:01;-8.00;99.90
19813;DHT22;10066;48.108;11.448;2023-12-04T07:19:28;-7.90;99.90
19813;DHT22;10066;48.108;11.448;2023-12-04T07:21:56;-7.90;99.90
19813;DHT22;10066;48.108;11.448;2023-12-04T07:24:23;-7.90;99.90
19813;DHT22;10066;48.108;11.448;2023-12-04T07:26:52;-7.80;99.90
19813;DHT22;10066;48.108;11.448;2023-12-04T07:29:19;-7.80;99.90
19813;DHT22;10066;48.108;11.448;2023-12-04T07:31:47;-7.70;99.90
19813;DHT22;10066;48.108;11.448;2023-12-04T07:34:19;-7.70;99.90
19813;DHT22;10066;48.108;11.448;2023-12-04T07:36:48;-7.60;99.90
19813;DHT22;10066;48.108;11.448;2023-12-04T07:39:16;-7.60;99.90
19813;DHT22;10066;48.108;11.448;2023-12-04T07:41:43;-7.50;99.90
19813;DHT22;10066;48.108;11.448;2023-12-04T07:44:10;-7.50;99.90
19813;DHT22;10066;48.108;11.448;2023-12-04T07:46:37;-7.40;99.90
19813;DHT22;10066;48.108;11.448;2023-12-04T07:49:06;-7.40;99.90
19813;DHT22;10066;48.108;11.448;2023-12-04T07:51:33;-7.30;99.90
19813;DHT22;10066;48.108;11.448;2023-12-04T07:54:00;-7.20;99.90
19813;DHT22;10066;48.108;11.448;2023-12-04T07:56:27;-7.20;99.90
19813;DHT22;10066;48.108;11.448;2023-12-04T07:58:54;-7.10;99.90
19813;DHT22;10066;48.108;11.448;2023-12-04T08:01:21;-7.10;99.90
19813;DHT22;10066;48.108;11.448;2023-12-04T08:03:48;-7.00;99.90
19813;DHT22;10066;48.108;11.448;2023-12-04T08:06:16;-6.90;99.90
19813;DHT22;10066;48.108;11.448;2023-12-04T08:08:44;-6.90;99.90
19813;DHT22;10066;48.108;11.448;2023-12-04T08:11:11;-6.80;99.90
19813;DHT22;10066;48.108;11.448;2023-12-04T08:13:39;-6.70;99.90
19813;DHT22;10066;48.108;11.448;2023-12-04T08:16:12;-6.60;99.90
19813;DHT22;10066;48.108;11.448;2023-12-04T08:18:41;-6.50;99.90
19813;DHT22;10066;48.108;11.448;2023-12-04T08:21:09;-6.40;99.90
19813;DHT22;10066;48.108;11.448;2023-12-04T08:23:38;-6.30;99.90
19813;DHT22;10066;48.108;11.448;2023-12-04T08:26:06;-6.10;99.90
19813;DHT22;10066;48.108;11.448;2023-12-04T08:28:33;-6.00;99.90
19813;DHT22;10066;48.108;11.448;2023-12-04T08:31:01;-5.90;99.90
19813;DHT22;10066;48.108;11.448;2023-12-04T08:33:29;-5.80;99.90
19813;DHT22;10066;48.108;11.448;2023-12-04T08:35:56;-5.70;99.90
19813;DHT22;10066;48.108;11.448;2023-12-04T08:38:23;-5.50;99.90
19813;DHT22;10066;48.108;11.448;2023-12-04T08:40:51;-5.50;99.90
19813;DHT22;10066;48.108;11.448;2023-12-04T08:43:18;-5.40;99.90
19813;DHT22;10066;48.108;11.448;2023-12-04T08:45:45;-5.20;99.90
19813;DHT22;10066;48.108;11.448;2023-12-04T08:48:13;-5.10;99.90
19813;DHT22;10066;48.108;11.448;2023-12-04T08:50:40;-5.00;99.90
19813;DHT22;10066;48.108;11.448;2023-12-04T08:55:34;-4.90;99.90
19813;DHT22;10066;48.108;11.448;2023-12-04T08:58:02;-4.80;99.90
19813;DHT22;10066;48.108;11.448;2023-12-04T09:00:29;-4.80;99.90
19813;DHT22;10066;48.108;11.448;2023-12-04T09:02:56;-4.70;99.90
19813;DHT22;10066;48.108;11.448;2023-12-04T09:05:23;-4.60;99.90
19813;DHT22;10066;48.108;11.448;2023-12-04T09:07:50;-4.50;99.90
19813;DHT22;10066;48.108;11.448;2023-12-04T09:10:17;-4.40;99.90
19813;DHT22;10066;48.108;11.448;2023-12-04T09:12:45;-4.30;99.90
19813;DHT22;10066;48.108;11.448;2023-12-04T09:15:13;-4.20;99.90
19813;DHT22;10066;48.108;11.448;2023-12-04T09:17:40;-4.20;99.90
19813;DHT22;10066;48.108;11.448;2023-12-04T09:20:08;-4.20;99.90
19813;DHT22;10066;48.108;11.448;2023-12-04T09:22:35;-4.20;99.90
19813;DHT22;10066;48.108;11.448;2023-12-04T09:25:05;-4.20;99.90
19813;DHT22;10066;48.108;11.448;2023-12-04T09:27:32;-4.10;99.90
19813;DHT22;10066;48.108;11.448;2023-12-04T09:29:59;-4.10;99.90
19813;DHT22;10066;48.108;11.448;2023-12-04T09:32:28;-4.10;99.90
19813;DHT22;10066;48.108;11.448;2023-12-04T09:34:55;-4.10;99.90
19813;DHT22;10066;48.108;11.448;2023-12-04T09:37:22;-4.10;99.90
19813;DHT22;10066;48.108;11.448;2023-12-04T09:39:49;-4.10;99.90
19813;DHT22;10066;48.108;11.448;2023-12-04T09:42:17;-4.10;99.90
19813;DHT22;10066;48.108;11.448;2023-12-04T09:44:46;-4.10;99.90
19813;DHT22;10066;48.108;11.448;2023-12-04T09:47:16;-4.10;99.90
19813;DHT22;10066;48.108;11.448;2023-12-04T09:49:45;-4.10;99.90
19813;DHT22;10066;48.108;11.448;2023-12-04T09:52:13;-4.00;99.90
19813;DHT22;10066;48.108;11.448;2023-12-04T09:54:41;-3.90;99.90
19813;DHT22;10066;48.108;11.448;2023-12-04T09:57:09;-3.80;99.90
19813;DHT22;10066;48.108;11.448;2023-12-04T09:59:36;-3.70;99.90
19813;DHT22;10066;48.108;11.448;2023-12-04T10:02:04;-3.60;99.90
19813;DHT22;10066;48.108;11.448;2023-12-04T10:04:32;-3.50;99.90
19813;DHT22;10066;48.108;11.448;2023-12-04T10:07:01;-3.40;99.90
19813;DHT22;10066;48.108;11.448;2023-12-04T10:09:28;-3.30;99.90
19813;DHT22;10066;48.108;11.448;2023-12-04T10:11:56;-3.20;99.90
19813;DHT22;10066;48.108;11.448;2023-12-04T10:14:23;-3.20;99.90
19813;DHT22;10066;48.108;11.448;2023-12-04T10:16:51;-3.10;99.90
19813;DHT22;10066;48.108;11.448;2023-12-04T10:19:20;-3.00;99.90
19813;DHT22;10066;48.108;11.448;2023-12-04T10:29:45;-2.60;99.90
19813;DHT22;10066;48.108;11.448;2023-12-04T10:32:13;-2.50;99.90
19813;DHT22;10066;48.108;11.448;2023-12-04T10:34:41;-2.30;99.90
19813;DHT22;10066;48.108;11.448;2023-12-04T10:37:10;-2.20;99.90
19813;DHT22;10066;48.108;11.448;2023-12-04T10:39:46;-2.10;99.90
19813;DHT22;10066;48.108;11.448;2023-12-04T10:42:23;-2.10;99.90
19813;DHT22;10066;48.108;11.448;2023-12-04T10:44:52;-2.00;99.90
19813;DHT22;10066;48.108;11.448;2023-12-04T10:47:19;-1.90;99.90
19813;DHT22;10066;48.108;11.448;2023-12-04T10:49:49;-1.80;99.90
19813;DHT22;10066;48.108;11.448;2023-12-04T10:52:17;-1.70;99.90
19813;DHT22;10066;48.108;11.448;2023-12-04T10:54:46;-1.70;99.90
19813;DHT22;10066;48.108;11.448;2023-12-04T10:57:16;-1.60;99.90
19813;DHT22;10066;48.108;11.448;2023-12-04T10:59:47;-1.50;99.90
19813;DHT22;10066;48.108;11.448;2023-12-04T11:02:21;-1.40;99.90
19813;DHT22;10066;48.108;11.448;2023-12-04T11:07:18;-1.30;99.90
19813;DHT22;10066;48.108;11.448;2023-12-04T11:09:49;-1.20;99.90
19813;DHT22;10066;48.108;11.448;2023-12-04T11:12:19;-1.10;99.90
19813;DHT22;10066;48.108;11.448;2023-12-04T11:14:53;-1.00;99.90
19813;DHT22;10066;48.108;11.448;2023-12-04T11:17:23;-1.00;99.90
19813;DHT22;10066;48.108;11.448;2023-12-04T11:19:55;-1.00;99.90
19813;DHT22;10066;48.108;11.448;2023-12-04T11:22:25;-0.90;99.90
19813;DHT22;10066;48.108;11.448;2023-12-04T11:24:55;-0.80;99.90
19813;DHT22;10066;48.108;11.448;2023-12-04T11:27:23;-0.80;99.90
19813;DHT22;10066;48.108;11.448;2023-12-04T11:29:51;-0.80;99.90
19813;DHT22;10066;48.108;11.448;2023-12-04T11:32:18;-0.80;99.90
19813;DHT22;10066;48.108;11.448;2023-12-04T11:34:50;-0.80;99.90
19813;DHT22;10066;48.108;11.448;2023-12-04T11:37:19;-0.80;99.90
19813;DHT22;10066;48.108;11.448;2023-12-04T11:39:46;-0.80;99.90
19813;DHT22;10066;48.108;11.448;2023-12-04T11:42:18;-0.80;99.90
19813;DHT22;10066;48.108;11.448;2023-12-04T11:44:48;-0.80;99.90
19813;DHT22;10066;48.108;11.448;2023-12-04T11:47:15;-0.80;99.90
19813;DHT22;10066;48.108;11.448;2023-12-04T11:49:43;-0.80;99.90
19813;DHT22;10066;48.108;11.448;2023-12-04T11:52:10;-0.80;99.90
19813;DHT22;10066;48.108;11.448;2023-12-04T11:54:56;-0.80;99.90
19813;DHT22;10066;48.108;11.448;2023-12-04T11:57:25;-0.90;99.90
19813;DHT22;10066;48.108;11.448;2023-12-04T12:00:09;-1.00;99.90
19813;DHT22;10066;48.108;11.448;2023-12-04T12:02:38;-1.00;99.90
19813;DHT22;10066;48.108;11.448;2023-12-04T12:05:06;-1.00;99.90
19813;DHT22;10066;48.108;11.448;2023-12-04T12:07:35;-1.10;99.90
19813;DHT22;10066;48.108;11.448;2023-12-04T12:10:04;-1.20;99.90
19813;DHT22;10066;48.108;11.448;2023-12-04T12:12:34;-1.30;99.90
19813;DHT22;10066;48.108;11.448;2023-12-04T12:15:02;-1.40;99.90
19813;DHT22;10066;48.108;11.448;2023-12-04T12:17:30;-1.40;99.90
19813;DHT22;10066;48.108;11.448;2023-12-04T12:19:57;-1.30;99.90
19813;DHT22;10066;48.108;11.448;2023-12-04T12:22:24;-1.30;99.90
19813;DHT22;10066;48.108;11.448;2023-12-04T12:24:51;-1.40;99.90
19813;DHT22;10066;48.108;11.448;2023-12-04T12:27:19;-1.50;99.90
19813;DHT22;10066;48.108;11.448;2023-12-04T12:29:48;-1.50;99.90
19813;DHT22;10066;48.108;11.448;2023-12-04T12:32:15;-1.70;99.90
19813;DHT22;10066;48.108;11.448;2023-12-04T12:34:42;-1.80;99.90
19813;DHT22;10066;48.108;11.448;2023-12-04T12:37:09;-1.80;99.90
19813;DHT22;10066;48.108;11.448;2023-12-04T12:39:37;-1.70;99.90
19813;DHT22;10066;48.108;11.448;2023-12-04T12:42:04;-1.60;99.90
19813;DHT22;10066;48.108;11.448;2023-12-04T12:44:37;-1.60;99.90
19813;DHT22;10066;48.108;11.448;2023-12-04T12:47:07;-1.60;99.90
19813;DHT22;10066;48.108;11.448;2023-12-04T12:49:34;-1.70;99.90
19813;DHT22;10066;48.108;11.448;2023-12-04T12:52:03;-1.70;99.90
19813;DHT22;10066;48.108;11.448;2023-12-04T12:54:31;-1.70;99.90
19813;DHT22;10066;48.108;11.448;2023-12-04T12:57:01;-1.60;99.90
19813;DHT22;10066;48.108;11.448;2023-12-04T12:59:28;-1.50;99.90
19813;DHT22;10066;48.108;11.448;2023-12-04T13:01:55;-1.50;99.90
19813;DHT22;10066;48.108;11.448;2023-12-04T13:04:33;-1.50;99.90
19813;DHT22;10066;48.108;11.448;2023-12-04T13:07:00;-1.40;99.90
19813;DHT22;10066;48.108;11.448;2023-12-04T13:09:28;-1.30;99.90
19813;DHT22;10066;48.108;11.448;2023-12-04T13:11:55;-1.30;99.90
19813;DHT22;10066;48.108;11.448;2023-12-04T13:14:22;-1.30;99.90
19813;DHT22;10066;48.108;11.448;2023-12-04T13:16:50;-1.20;99.90
19813;DHT22;10066;48.108;11.448;2023-12-04T13:19:17;-1.30;99.90
19813;DHT22;10066;48.108;11.448;2023-12-04T13:21:45;-1.40;99.90
19813;DHT22;10066;48.108;11.448;2023-12-04T13:24:12;-1.60;99.90
19813;DHT22;10066;48.108;11.448;2023-12-04T13:26:40;-1.70;99.90
19813;DHT22;10066;48.108;11.448;2023-12-04T13:29:07;-1.60;99.90
19813;DHT22;10066;48.108;11.448;2023-12-04T13:31:35;-1.70;99.90
19813;DHT22;10066;48.108;11.448;2023-12-04T13:34:02;-1.70;99.90
19813;DHT22;10066;48.108;11.448;2023-12-04T13:36:32;-1.80;99.90
19813;DHT22;10066;48.108;11.448;2023-12-04T13:39:00;-1.90;99.90
19813;DHT22;10066;48.108;11.448;2023-12-04T13:41:28;-2.00;99.90
19813;DHT22;10066;48.108;11.448;2023-12-04T13:44:12;-2.10;99.90
19813;DHT22;10066;48.108;11.448;2023-12-04T13:46:41;-2.20;99.90
19813;DHT22;10066;48.108;11.448;2023-12-04T13:49:08;-2.30;99.90
19813;DHT22;10066;48.108;11.448;2023-12-04T13:51:35;-2.40;99.90
19813;DHT22;10066;48.108;11.448;2023-12-04T13:54:07;-2.40;99.90
19813;DHT22;10066;48.108;11.448;2023-12-04T13:56:46;-2.50;99.90
19813;DHT22;10066;48.108;11.448;2023-12-04T13:59:19;-2.50;99.90
19813;DHT22;10066;48.108;11.448;2023-12-04T14:01:47;-2.40;99.90
19813;DHT22;10066;48.108;11.448;2023-12-04T14:04:16;-2.40;99.90
19813;DHT22;10066;48.108;11.448;2023-12-04T14:06:44;-2.40;99.90
19813;DHT22;10066;48.108;11.448;2023-12-04T14:09:13;-2.40;99.90
19813;DHT22;10066;48.108;11.448;2023-12-04T14:11:42;-2.50;99.90
19813;DHT22;10066;48.108;11.448;2023-12-04T14:14:10;-2.50;99.90
19813;DHT22;10066;48.108;11.448;2023-12-04T14:16:38;-2.50;99.90
19813;DHT22;10066;48.108;11.448;2023-12-04T14:19:06;-2.50;99.90
19813;DHT22;10066;48.108;11.448;2023-12-04T14:21:32;-2.50;99.90
19813;DHT22;10066;48.108;11.448;2023-12-04T14:24:00;-2.50;99.90
19813;DHT22;10066;48.108;11.448;2023-12-04T14:26:28;-2.60;99.90
19813;DHT22;10066;48.108;11.448;2023-12-04T14:28:55;-2.60;99.90
19813;DHT22;10066;48.108;11.448;2023-12-04T14:31:26;-2.70;99.90
19813;DHT22;10066;48.108;11.448;2023-12-04T14:33:53;-2.90;99.90
19813;DHT22;10066;48.108;11.448;2023-12-04T14:36:20;-3.10;99.90
19813;DHT22;10066;48.108;11.448;2023-12-04T14:38:47;-3.20;99.90
19813;DHT22;10066;48.108;11.448;2023-12-04T14:41:14;-3.30;99.90
19813;DHT22;10066;48.108;11.448;2023-12-04T14:43:43;-3.40;99.90
19813;DHT22;10066;48.108;11.448;2023-12-04T14:46:11;-3.50;99.90
19813;DHT22;10066;48.108;11.448;2023-12-04T14:48:38;-3.60;99.90
19813;DHT22;10066;48.108;11.448;2023-12-04T14:51:07;-3.50;99.90
19813;DHT22;10066;48.108;11.448;2023-12-04T14:53:35;-3.60;99.90
19813;DHT22;10066;48.108;11.448;2023-12-04T14:56:11;-3.50;99.90
19813;DHT22;10066;48.108;11.448;2023-12-04T14:58:56;-3.60;99.90
19813;DHT22;10066;48.108;11.448;2023-12-04T15:01:46;-3.70;99.90
19813;DHT22;10066;48.108;11.448;2023-12-04T15:04:31;-3.80;99.90
19813;DHT22;10066;48.108;11.448;2023-12-04T15:07:11;-3.80;99.90
19813;DHT22;10066;48.108;11.448;2023-12-04T15:10:05;-3.90;99.90
19813;DHT22;10066;48.108;11.448;2023-12-04T15:12:50;-4.00;99.90
19813;DHT22;10066;48.108;11.448;2023-12-04T15:15:33;-4.00;99.90
19813;DHT22;10066;48.108;11.448;2023-12-04T15:18:24;-4.10;99.90
19813;DHT22;10066;48.108;11.448;2023-12-04T15:21:03;-4.20;99.90
19813;DHT22;10066;48.108;11.448;2023-12-04T15:23:31;-4.30;99.90
19813;DHT22;10066;48.108;11.448;2023-12-04T15:25:57;-4.40;99.90
19813;DHT22;10066;48.108;11.448;2023-12-04T15:28:24;-4.50;99.90
19813;DHT22;10066;48.108;11.448;2023-12-04T15:30:52;-4.50;99.90
19813;DHT22;10066;48.108;11.448;2023-12-04T15:33:20;-4.50;99.90
19813;DHT22;10066;48.108;11.448;2023-12-04T15:35:47;-4.50;99.90